createdAt,value
2022-10-09T00:02:03.991Z,6.27
2022-10-09T00:04:49.014Z,6.27
2022-10-09T00:07:34.390Z,6.16
2022-10-09T00:10:20.207Z,5.83
2022-10-09T00:13:06.049Z,5.66
2022-10-09T00:15:51.018Z,5.76
2022-10-09T00:18:36.089Z,5.70
2022-10-09T00:21:29.963Z,5.80
2022-10-09T00:24:15.314Z,5.82
2022-10-09T00:27:00.484Z,5.80
2022-10-09T00:29:45.448Z,5.80
2022-10-09T00:32:30.481Z,5.77
2022-10-09T00:35:15.787Z,5.71
2022-10-09T00:38:00.583Z,5.51
2022-10-09T00:40:45.851Z,5.52
2022-10-09T00:43:54.420Z,5.57
2022-10-09T00:46:45.934Z,5.51
2022-10-09T00:49:33.964Z,5.58
2022-10-09T00:52:21.409Z,5.50
2022-10-09T00:55:08.037Z,5.56
2022-10-09T00:57:56.065Z,5.67
2022-10-09T01:00:41.416Z,5.57
2022-10-09T01:03:26.635Z,5.52
2022-10-09T01:06:20.840Z,5.48
2022-10-09T01:09:16.230Z,5.51
2022-10-09T01:12:09.486Z,5.63
2022-10-09T01:15:19.155Z,5.59
2022-10-09T01:18:42.715Z,5.51
2022-10-09T01:22:03.039Z,5.45
2022-10-09T01:25:11.981Z,5.46
2022-10-09T01:27:57.214Z,5.51
2022-10-09T01:30:42.779Z,5.67
2022-10-09T01:33:30.297Z,5.80
2022-10-09T01:36:17.006Z,5.76
2022-10-09T01:39:04.931Z,5.61
2022-10-09T01:41:51.984Z,5.51
2022-10-09T01:44:37.102Z,5.50
2022-10-09T01:47:22.185Z,5.43
2022-10-09T01:50:27.310Z,5.57
2022-10-09T01:53:18.442Z,5.46
2022-10-09T01:56:09.243Z,5.32
2022-10-09T01:59:02.080Z,5.25
2022-10-09T02:01:48.166Z,5.27
2022-10-09T02:04:36.913Z,5.20
2022-10-09T02:07:24.876Z,5.21
2022-10-09T02:10:10.816Z,5.27
2022-10-09T02:12:58.894Z,5.22
2022-10-09T02:15:49.339Z,5.43
2022-10-09T02:18:44.601Z,5.27
2022-10-09T02:21:39.630Z,5.26
2022-10-09T02:24:25.429Z,5.29
2022-10-09T02:27:12.181Z,5.08
2022-10-09T02:29:59.397Z,5.31
2022-10-09T02:32:47.261Z,5.14
2022-10-09T02:35:33.141Z,4.91
2022-10-09T02:38:17.985Z,5.14
2022-10-09T02:41:03.353Z,5.03
2022-10-09T02:43:48.051Z,4.89
2022-10-09T02:46:33.905Z,4.93
2022-10-09T02:49:19.219Z,4.90
2022-10-09T02:52:04.529Z,5.02
2022-10-09T02:54:49.948Z,4.96
2022-10-09T02:57:34.751Z,4.96
2022-10-09T03:00:19.622Z,5.03
2022-10-09T03:03:04.541Z,5.02
2022-10-09T03:05:59.875Z,4.85
2022-10-09T03:08:47.345Z,4.98
2022-10-09T03:11:32.948Z,4.84
2022-10-09T03:14:18.212Z,4.78
2022-10-09T03:17:03.040Z,4.81
2022-10-09T03:19:48.052Z,4.82
2022-10-09T03:22:33.205Z,4.81
2022-10-09T03:25:18.713Z,5.00
2022-10-09T03:28:04.749Z,4.88
2022-10-09T03:30:50.095Z,4.96
2022-10-09T03:33:36.068Z,4.98
2022-10-09T03:36:20.791Z,4.97
2022-10-09T03:39:05.642Z,5.02
2022-10-09T03:41:50.578Z,4.91
2022-10-09T03:44:35.369Z,4.83
2022-10-09T03:47:20.307Z,4.75
2022-10-09T03:50:06.210Z,4.75
2022-10-09T03:52:52.084Z,4.87
2022-10-09T03:55:37.547Z,4.91
2022-10-09T03:58:22.797Z,4.91
2022-10-09T04:01:07.743Z,4.83
2022-10-09T04:03:53.040Z,4.86
2022-10-09T04:06:37.956Z,5.00
2022-10-09T04:09:22.796Z,4.84
2022-10-09T04:12:07.880Z,4.79
2022-10-09T04:14:52.809Z,4.81
2022-10-09T04:17:37.776Z,4.77
2022-10-09T04:20:22.732Z,4.78
2022-10-09T04:23:08.081Z,4.75
2022-10-09T04:25:54.358Z,4.75
2022-10-09T04:28:39.989Z,4.80
2022-10-09T04:31:25.156Z,4.72
2022-10-09T04:34:10.270Z,4.82
2022-10-09T04:36:55.562Z,4.77
2022-10-09T04:39:40.516Z,4.80
2022-10-09T04:42:25.735Z,4.93
2022-10-09T04:45:11.321Z,4.83
2022-10-09T04:47:56.289Z,4.80
2022-10-09T04:50:41.055Z,4.72
2022-10-09T04:53:25.815Z,4.74
2022-10-09T04:56:16.012Z,4.78
2022-10-09T04:59:01.223Z,4.81
2022-10-09T05:01:46.145Z,4.69
2022-10-09T05:04:31.539Z,4.68
2022-10-09T05:07:16.654Z,4.61
2022-10-09T05:10:02.074Z,4.43
2022-10-09T05:12:47.201Z,4.57
2022-10-09T05:15:36.504Z,4.55
2022-10-09T05:18:21.579Z,4.43
2022-10-09T05:21:06.656Z,4.36
2022-10-09T05:23:53.991Z,4.32
2022-10-09T05:26:39.295Z,4.29
2022-10-09T05:29:24.376Z,4.36
2022-10-09T05:32:09.533Z,4.18
2022-10-09T05:34:54.919Z,4.10
2022-10-09T05:37:39.863Z,4.08
2022-10-09T05:40:29.091Z,4.01
2022-10-09T05:43:14.114Z,4.07
2022-10-09T05:46:10.983Z,3.97
2022-10-09T05:49:01.529Z,3.79
2022-10-09T05:51:46.477Z,3.75
2022-10-09T05:54:31.569Z,3.87
2022-10-09T05:57:16.307Z,3.90
2022-10-09T06:00:01.448Z,3.88
2022-10-09T06:02:47.143Z,3.92
2022-10-09T06:05:32.513Z,3.95
2022-10-09T06:08:17.502Z,4.04
2022-10-09T06:11:32.668Z,4.14
2022-10-09T06:14:17.979Z,4.17
2022-10-09T06:17:03.028Z,4.37
2022-10-09T06:19:47.900Z,4.28
2022-10-09T06:22:32.757Z,4.53
2022-10-09T06:25:17.777Z,4.94
2022-10-09T06:28:03.479Z,5.22
2022-10-09T06:30:49.298Z,5.59
2022-10-09T06:33:36.411Z,5.91
2022-10-09T06:36:24.252Z,5.98
2022-10-09T06:39:10.449Z,6.10
2022-10-09T06:41:55.398Z,6.43
2022-10-09T06:44:40.155Z,6.70
2022-10-09T06:47:25.018Z,6.94
2022-10-09T06:50:10.014Z,7.29
2022-10-09T06:52:55.226Z,7.66
2022-10-09T06:55:40.575Z,7.99
2022-10-09T06:58:26.463Z,8.22
2022-10-09T07:01:18.567Z,8.51
2022-10-09T07:04:06.596Z,8.25
2022-10-09T07:06:51.848Z,8.24
2022-10-09T07:09:36.911Z,8.17
2022-10-09T07:12:22.055Z,7.89
2022-10-09T07:15:07.848Z,7.75
2022-10-09T07:17:52.735Z,7.89
2022-10-09T07:20:37.532Z,7.93
2022-10-09T07:23:22.385Z,7.76
2022-10-09T07:26:16.413Z,7.82
2022-10-09T07:29:01.747Z,7.87
2022-10-09T07:31:47.236Z,7.66
2022-10-09T07:34:32.524Z,7.77
2022-10-09T07:37:17.545Z,7.50
2022-10-09T07:40:02.618Z,7.66
2022-10-09T07:42:48.211Z,7.63
2022-10-09T07:45:35.199Z,7.61
2022-10-09T07:48:20.678Z,7.68
2022-10-09T07:51:09.330Z,7.79
2022-10-09T07:53:54.725Z,7.73
2022-10-09T07:56:39.850Z,8.04
2022-10-09T07:59:24.711Z,8.46
2022-10-09T08:02:09.813Z,8.86
2022-10-09T08:04:55.081Z,9.13
2022-10-09T08:07:40.039Z,9.33
2022-10-09T08:10:25.412Z,10.12
2022-10-09T08:13:10.516Z,10.01
2022-10-09T08:15:57.814Z,9.80
2022-10-09T08:18:43.022Z,9.81
2022-10-09T08:21:29.096Z,10.08
2022-10-09T08:24:14.396Z,9.94
2022-10-09T08:26:59.234Z,10.06
2022-10-09T08:29:44.028Z,9.98
2022-10-09T08:32:28.924Z,10.03
2022-10-09T08:35:13.851Z,9.93
2022-10-09T08:37:59.291Z,9.81
2022-10-09T08:41:03.599Z,9.95
2022-10-09T08:44:00.539Z,9.93
2022-10-09T08:47:00.944Z,10.00
2022-10-09T08:50:16.748Z,10.21
2022-10-09T08:53:01.804Z,10.41
2022-10-09T08:55:50.909Z,10.30
2022-10-09T08:58:38.842Z,10.39
2022-10-09T09:01:37.997Z,10.55
2022-10-09T09:04:41.884Z,10.70
2022-10-09T09:07:36.176Z,10.87
2022-10-09T09:10:31.138Z,10.79
2022-10-09T09:13:19.262Z,10.94
2022-10-09T09:16:42.342Z,10.91
2022-10-09T09:19:59.629Z,11.10
2022-10-09T09:22:49.465Z,11.33
2022-10-09T09:25:39.601Z,11.24
2022-10-09T09:28:28.588Z,11.29
2022-10-09T09:31:13.434Z,11.34
2022-10-09T09:34:14.880Z,11.58
2022-10-09T09:37:00.518Z,11.60
2022-10-09T09:42:51.228Z,11.99
2022-10-09T09:45:36.747Z,12.07
2022-10-09T09:48:30.377Z,12.09
2022-10-09T09:51:30.021Z,12.19
2022-10-09T09:54:26.726Z,12.22
2022-10-09T09:57:15.806Z,12.24
2022-10-09T10:00:09.937Z,12.30
2022-10-09T10:03:12.664Z,12.42
2022-10-09T10:05:58.036Z,12.48
2022-10-09T10:08:45.439Z,12.68
2022-10-09T10:11:32.867Z,12.88
2022-10-09T10:14:18.032Z,12.95
2022-10-09T10:17:03.114Z,13.00
2022-10-09T10:19:50.693Z,13.04
2022-10-09T10:22:36.129Z,13.01
2022-10-09T10:25:25.844Z,13.20
2022-10-09T10:28:18.731Z,13.40
2022-10-09T10:31:10.065Z,13.48
2022-10-09T10:33:57.194Z,13.51
2022-10-09T10:36:42.344Z,13.71
2022-10-09T10:39:37.206Z,13.79
2022-10-09T10:42:36.368Z,13.72
2022-10-09T10:45:47.857Z,13.82
2022-10-09T10:48:46.091Z,13.89
2022-10-09T10:51:47.156Z,13.94
2022-10-09T10:55:11.878Z,14.13
2022-10-09T10:58:39.463Z,14.07
2022-10-09T11:01:37.182Z,14.29
2022-10-09T11:04:41.250Z,14.17
2022-10-09T11:07:41.770Z,14.30
2022-10-09T11:10:54.998Z,14.28
2022-10-09T11:13:57.658Z,14.41
2022-10-09T11:16:51.018Z,14.43
2022-10-09T11:20:10.725Z,14.63
2022-10-09T11:23:17.801Z,14.78
2022-10-09T11:26:28.945Z,14.99
2022-10-09T11:29:23.566Z,15.12
2022-10-09T11:33:01.293Z,15.41
2022-10-09T11:35:58.630Z,16.05
2022-10-09T11:38:48.611Z,16.46
2022-10-09T11:41:35.830Z,16.34
2022-10-09T11:44:46.143Z,16.04
2022-10-09T11:47:57.189Z,15.82
2022-10-09T11:50:56.274Z,15.63
2022-10-09T11:53:43.355Z,15.59
2022-10-09T11:56:31.238Z,15.56
2022-10-09T11:59:23.185Z,15.45
2022-10-09T12:02:30.498Z,15.57
2022-10-09T12:05:18.733Z,15.60
2022-10-09T12:08:15.451Z,15.54
2022-10-09T12:11:12.042Z,15.44
2022-10-09T12:14:06.389Z,15.43
2022-10-09T12:16:51.437Z,15.68
2022-10-09T12:19:40.213Z,15.69
2022-10-09T12:22:30.306Z,15.76
2022-10-09T12:25:41.926Z,15.93
2022-10-09T12:28:43.261Z,15.93
2022-10-09T12:31:36.510Z,16.07
2022-10-09T12:34:30.882Z,16.16
2022-10-09T12:37:21.618Z,16.11
2022-10-09T12:40:15.266Z,16.22
2022-10-09T12:43:07.461Z,16.50
2022-10-09T12:45:53.910Z,17.24
2022-10-09T12:48:41.718Z,17.79
2022-10-09T12:51:30.013Z,18.26
2022-10-09T12:54:15.073Z,18.91
2022-10-09T12:57:00.942Z,19.59
2022-10-09T12:59:48.204Z,19.67
2022-10-09T13:02:33.467Z,19.56
2022-10-09T13:05:18.666Z,19.72
2022-10-09T13:08:04.288Z,20.05
2022-10-09T13:10:49.247Z,20.04
2022-10-09T13:13:34.619Z,20.23
2022-10-09T13:16:22.096Z,20.75
2022-10-09T13:19:26.821Z,20.44
2022-10-09T13:22:12.597Z,19.80
2022-10-09T13:24:59.341Z,19.75
2022-10-09T13:27:44.445Z,18.82
2022-10-09T13:30:29.993Z,18.38
2022-10-09T13:33:16.709Z,17.72
2022-10-09T13:36:01.927Z,17.51
2022-10-09T13:38:48.944Z,17.17
2022-10-09T13:41:35.290Z,16.97
2022-10-09T13:44:20.471Z,17.07
2022-10-09T13:47:05.826Z,17.09
2022-10-09T13:49:51.195Z,17.20
2022-10-09T13:52:36.447Z,17.45
2022-10-09T13:55:21.574Z,17.27
2022-10-09T13:58:06.554Z,17.23
2022-10-09T14:00:51.415Z,17.07
2022-10-09T14:03:36.667Z,17.00
2022-10-09T14:06:22.028Z,16.94
2022-10-09T14:09:07.336Z,16.77
2022-10-09T14:11:52.907Z,16.79
2022-10-09T14:14:37.772Z,16.74
2022-10-09T14:17:22.716Z,16.78
2022-10-09T14:20:08.328Z,16.92
2022-10-09T14:22:53.183Z,16.95
2022-10-09T14:25:38.157Z,16.93
2022-10-09T14:28:23.082Z,16.73
2022-10-09T14:31:08.500Z,16.65
2022-10-09T14:33:57.077Z,16.58
2022-10-09T14:36:42.396Z,16.57
2022-10-09T14:39:27.371Z,16.53
2022-10-09T14:42:12.345Z,16.54
2022-10-09T14:44:57.569Z,16.66
2022-10-09T14:47:42.450Z,17.07
2022-10-09T14:50:27.544Z,17.57
2022-10-09T14:53:12.489Z,17.41
2022-10-09T14:56:00.312Z,17.37
2022-10-09T14:58:45.714Z,16.96
2022-10-09T15:01:30.816Z,16.78
2022-10-09T15:04:16.103Z,16.82
2022-10-09T15:07:01.422Z,16.81
2022-10-09T15:09:46.362Z,16.76
2022-10-09T15:12:31.838Z,16.60
2022-10-09T15:15:16.916Z,16.66
2022-10-09T15:18:02.220Z,16.71
2022-10-09T15:20:47.162Z,16.77
2022-10-09T15:23:32.162Z,16.91
2022-10-09T15:26:17.152Z,16.89
2022-10-09T15:29:05.784Z,17.20
2022-10-09T15:31:51.118Z,17.18
2022-10-09T15:34:40.667Z,17.62
2022-10-09T15:37:26.225Z,17.92
2022-10-09T15:40:11.335Z,17.65
2022-10-09T15:42:56.272Z,17.87
2022-10-09T15:45:41.708Z,18.66
2022-10-09T15:48:26.877Z,18.16
2022-10-09T15:51:12.810Z,18.33
2022-10-09T15:53:59.134Z,18.53
2022-10-09T15:56:43.904Z,18.19
2022-10-09T15:59:28.834Z,17.86
2022-10-09T16:02:13.943Z,18.30
2022-10-09T16:04:59.128Z,17.92
2022-10-09T16:07:44.576Z,17.07
2022-10-09T16:10:29.780Z,16.31
2022-10-09T16:13:15.085Z,16.07
2022-10-09T16:16:04.629Z,15.96
2022-10-09T16:18:50.969Z,15.59
2022-10-09T16:21:36.223Z,15.59
2022-10-09T16:24:21.190Z,15.50
2022-10-09T16:27:06.334Z,15.11
2022-10-09T16:29:51.632Z,14.91
2022-10-09T16:32:36.541Z,14.91
2022-10-09T16:35:22.421Z,14.80
2022-10-09T16:38:07.511Z,14.61
2022-10-09T16:41:07.867Z,14.59
2022-10-09T16:43:55.537Z,14.45
2022-10-09T16:46:40.751Z,14.14
2022-10-09T16:49:26.046Z,14.32
2022-10-09T16:52:11.293Z,14.20
2022-10-09T16:55:00.149Z,14.09
2022-10-09T16:57:45.557Z,13.88
2022-10-09T17:00:30.664Z,13.88
2022-10-09T17:03:16.071Z,13.76
2022-10-09T17:06:01.264Z,13.65
2022-10-09T17:08:47.206Z,13.66
2022-10-09T17:11:32.302Z,13.57
2022-10-09T17:14:17.559Z,13.47
2022-10-09T17:17:04.273Z,13.48
2022-10-09T17:19:52.413Z,13.34
2022-10-09T17:22:37.263Z,13.31
2022-10-09T17:25:22.275Z,13.35
2022-10-09T17:28:08.141Z,13.06
2022-10-09T17:30:53.463Z,13.17
2022-10-09T17:33:38.988Z,13.15
2022-10-09T17:36:26.433Z,13.07
2022-10-09T17:39:14.598Z,12.90
2022-10-09T17:41:59.810Z,12.90
2022-10-09T17:44:44.585Z,12.75
2022-10-09T17:47:29.650Z,12.73
2022-10-09T17:50:14.930Z,12.79
2022-10-09T17:53:00.799Z,12.79
2022-10-09T17:55:45.751Z,12.72
2022-10-09T17:58:30.559Z,12.71
2022-10-09T18:01:17.179Z,12.60
2022-10-09T18:04:03.249Z,12.53
2022-10-09T18:06:49.231Z,12.47
2022-10-09T18:09:34.590Z,12.43
2022-10-09T18:12:19.557Z,12.39
2022-10-09T18:15:05.028Z,12.37
2022-10-09T18:17:50.453Z,12.28
2022-10-09T18:20:37.485Z,12.32
2022-10-09T18:23:23.029Z,12.25
2022-10-09T18:26:10.715Z,12.23
2022-10-09T18:28:55.803Z,12.30
2022-10-09T18:31:41.025Z,12.17
2022-10-09T18:34:26.481Z,11.99
2022-10-09T18:37:11.617Z,12.03
2022-10-09T18:39:56.807Z,12.00
2022-10-09T18:42:41.696Z,11.99
2022-10-09T18:45:26.823Z,11.86
2022-10-09T18:48:12.169Z,11.94
2022-10-09T18:50:58.650Z,11.88
2022-10-09T18:53:48.541Z,11.78
2022-10-09T18:56:35.599Z,11.77
2022-10-09T18:59:23.050Z,11.75
2022-10-09T19:02:08.098Z,11.65
2022-10-09T19:04:55.770Z,11.69
2022-10-09T19:07:40.953Z,11.60
2022-10-09T19:10:26.243Z,11.64
2022-10-09T19:13:11.157Z,11.52
2022-10-09T19:15:57.944Z,11.50
2022-10-09T19:18:43.321Z,11.50
2022-10-09T19:21:28.634Z,11.48
2022-10-09T19:24:13.610Z,11.43
2022-10-09T19:26:59.127Z,11.37
2022-10-09T19:29:44.304Z,11.35
2022-10-09T19:32:29.533Z,11.20
2022-10-09T19:35:14.899Z,11.22
2022-10-09T19:37:59.710Z,11.27
2022-10-09T19:40:45.515Z,11.09
2022-10-09T19:43:30.466Z,11.13
2022-10-09T19:46:18.855Z,11.06
2022-10-09T19:49:04.704Z,11.00
2022-10-09T19:51:49.664Z,10.88
2022-10-09T19:54:35.684Z,10.87
2022-10-09T19:57:20.922Z,10.80
2022-10-09T20:00:07.178Z,10.73
2022-10-09T20:02:52.812Z,10.69
2022-10-09T20:05:38.744Z,10.62
2022-10-09T20:08:23.647Z,10.60
2022-10-09T20:11:09.141Z,10.61
2022-10-09T20:13:56.310Z,10.67
2022-10-09T20:16:41.889Z,10.57
2022-10-09T20:19:26.830Z,10.51
2022-10-09T20:22:11.613Z,10.49
2022-10-09T20:24:56.533Z,10.44
2022-10-09T20:27:41.528Z,10.45
2022-10-09T20:30:26.555Z,10.50
2022-10-09T20:33:11.338Z,10.28
2022-10-09T20:35:56.349Z,10.40
2022-10-09T20:38:41.669Z,10.24
2022-10-09T20:41:28.929Z,10.29
2022-10-09T20:44:14.481Z,10.16
2022-10-09T20:46:59.300Z,10.10
2022-10-09T20:49:44.330Z,10.08
2022-10-09T20:52:29.105Z,10.08
2022-10-09T20:55:13.985Z,9.89
2022-10-09T20:57:58.935Z,9.81
2022-10-09T21:00:44.257Z,9.79
2022-10-09T21:03:29.222Z,9.78
2022-10-09T21:06:16.625Z,9.65
2022-10-09T21:09:02.257Z,9.76
2022-10-09T21:11:47.295Z,9.76
2022-10-09T21:14:32.625Z,9.76
2022-10-09T21:17:17.382Z,9.75
2022-10-09T21:20:02.273Z,9.76
2022-10-09T21:22:47.329Z,9.64
2022-10-09T21:25:33.169Z,9.76
2022-10-09T21:28:22.372Z,9.71
2022-10-09T21:31:09.488Z,9.67
2022-10-09T21:33:54.830Z,9.57
2022-10-09T21:37:19.853Z,9.55
2022-10-09T21:39:54.750Z,9.43
2022-10-09T21:42:39.644Z,9.28
2022-10-09T21:45:24.543Z,9.32
2022-10-09T21:48:15.327Z,9.33
2022-10-09T21:51:00.603Z,9.26
2022-10-09T21:53:45.844Z,9.26
2022-10-09T21:56:30.933Z,9.16
2022-10-09T21:59:16.004Z,9.20
2022-10-09T22:02:01.212Z,9.14
2022-10-09T22:04:46.185Z,9.08
2022-10-09T22:07:31.488Z,9.08
2022-10-09T22:10:16.465Z,9.02
2022-10-09T22:13:01.867Z,9.04
2022-10-09T22:15:50.934Z,9.08
2022-10-09T22:18:36.961Z,9.16
2022-10-09T22:21:22.088Z,9.13
2022-10-09T22:24:07.114Z,9.21
2022-10-09T22:26:52.145Z,9.14
2022-10-09T22:29:36.931Z,9.16
2022-10-09T22:32:22.213Z,9.23
2022-10-09T22:35:07.881Z,9.12
2022-10-09T22:37:53.489Z,9.21
2022-10-09T22:40:38.447Z,9.18
2022-10-09T22:43:23.745Z,9.14
2022-10-09T22:46:12.745Z,9.19
2022-10-09T22:48:58.284Z,9.22
2022-10-09T22:51:44.425Z,9.20
2022-10-09T22:54:29.659Z,9.20
2022-10-09T22:57:14.699Z,9.23
2022-10-09T22:59:59.492Z,9.24
2022-10-09T23:02:44.266Z,9.22
2022-10-09T23:05:29.006Z,9.12
2022-10-09T23:08:13.740Z,9.08
2022-10-09T23:10:59.042Z,9.16
2022-10-09T23:13:45.032Z,9.13
2022-10-09T23:16:30.428Z,9.06
2022-10-09T23:19:15.743Z,9.13
2022-10-09T23:22:00.842Z,9.01
2022-10-09T23:24:46.087Z,9.10
2022-10-09T23:27:31.555Z,9.08
2022-10-09T23:30:16.502Z,9.10
2022-10-09T23:33:01.414Z,9.02
2022-10-09T23:35:46.306Z,9.11
2022-10-09T23:38:31.786Z,9.12
2022-10-09T23:41:19.620Z,9.12
2022-10-09T23:44:05.230Z,9.09
2022-10-09T23:46:50.421Z,9.16
2022-10-09T23:49:36.497Z,9.14
2022-10-09T23:52:21.753Z,9.11
2022-10-09T23:55:07.008Z,9.06
2022-10-09T23:57:51.932Z,9.07
